createdAt,value
2022-08-23T00:00:01.159Z,76.93
2022-08-23T00:02:34.492Z,77.19
2022-08-23T00:05:08.916Z,77.79
2022-08-23T00:07:39.489Z,77.46
2022-08-23T00:10:10.067Z,77.66
2022-08-23T00:12:39.620Z,77.80
2022-08-23T00:15:10.011Z,77.95
2022-08-23T00:17:37.962Z,77.34
2022-08-23T00:20:08.043Z,77.50
2022-08-23T00:22:36.270Z,77.72
2022-08-23T00:25:05.054Z,77.41
2022-08-23T00:27:33.427Z,77.43
2022-08-23T00:30:03.498Z,77.23
2022-08-23T00:32:35.720Z,76.66
2022-08-23T00:35:06.325Z,77.35
2022-08-23T00:37:34.559Z,77.56
2022-08-23T00:40:03.047Z,77.43
2022-08-23T00:42:52.774Z,77.40
2022-08-23T00:45:44.796Z,77.09
2022-08-23T00:48:13.793Z,76.23
2022-08-23T00:50:48.848Z,76.47
2022-08-23T00:53:20.504Z,76.38
2022-08-23T00:55:51.760Z,76.55
2022-08-23T00:58:21.646Z,77.38
2022-08-23T01:00:53.577Z,77.13
2022-08-23T01:03:24.114Z,78.24
2022-08-23T01:05:57.443Z,77.88
2022-08-23T01:08:28.129Z,78.20
2022-08-23T01:11:01.358Z,78.21
2022-08-23T01:13:37.357Z,78.13
2022-08-23T01:16:10.891Z,78.69
2022-08-23T01:18:39.268Z,79.19
2022-08-23T01:21:18.359Z,79.07
2022-08-23T01:23:53.126Z,78.75
2022-08-23T01:26:23.010Z,78.64
2022-08-23T01:28:52.079Z,78.44
2022-08-23T01:31:22.572Z,78.15
2022-08-23T01:33:55.417Z,77.96
2022-08-23T01:36:24.545Z,78.40
2022-08-23T01:38:55.256Z,77.81
2022-08-23T01:41:23.681Z,78.30
2022-08-23T01:43:52.005Z,78.40
2022-08-23T01:46:23.645Z,78.18
2022-08-23T01:48:54.552Z,78.80
2022-08-23T01:51:24.941Z,78.71
2022-08-23T01:53:53.306Z,78.56
2022-08-23T01:56:38.177Z,78.44
2022-08-23T01:59:11.575Z,78.13
2022-08-23T02:01:47.512Z,78.08
2022-08-23T02:04:15.765Z,78.18
2022-08-23T02:06:43.543Z,78.16
2022-08-23T02:09:17.857Z,77.81
2022-08-23T02:11:48.588Z,77.92
2022-08-23T02:14:19.459Z,78.57
2022-08-23T02:17:03.463Z,78.24
2022-08-23T02:19:34.351Z,78.70
2022-08-23T02:22:03.513Z,78.28
2022-08-23T02:24:32.114Z,77.97
2022-08-23T02:27:05.029Z,77.88
2022-08-23T02:29:39.156Z,78.11
2022-08-23T02:32:10.002Z,78.13
2022-08-23T02:37:24.264Z,78.15
2022-08-23T02:39:52.185Z,78.32
2022-08-23T02:42:21.705Z,77.59
2022-08-23T02:44:50.057Z,77.68
2022-08-23T02:47:18.903Z,78.78
2022-08-23T02:49:58.426Z,78.28
2022-08-23T02:52:26.358Z,77.91
2022-08-23T02:54:58.288Z,77.80
2022-08-23T02:57:28.168Z,78.23
2022-08-23T03:00:00.567Z,77.80
2022-08-23T03:02:28.770Z,78.06
2022-08-23T03:04:56.834Z,78.12
2022-08-23T03:07:24.729Z,78.11
2022-08-23T03:09:53.149Z,77.42
2022-08-23T03:12:21.172Z,77.64
2022-08-23T03:14:54.249Z,77.82
2022-08-23T03:17:23.145Z,77.68
2022-08-23T03:19:52.372Z,77.28
2022-08-23T03:22:20.915Z,77.27
2022-08-23T03:24:48.717Z,77.15
2022-08-23T03:27:16.750Z,76.83
2022-08-23T03:29:45.197Z,76.52
2022-08-23T03:32:15.484Z,76.27
2022-08-23T03:34:45.233Z,76.48
2022-08-23T03:37:13.157Z,76.71
2022-08-23T03:39:41.567Z,76.59
2022-08-23T03:42:10.183Z,76.47
2022-08-23T03:44:37.999Z,76.40
2022-08-23T03:47:06.605Z,76.21
2022-08-23T03:49:37.253Z,76.39
2022-08-23T03:52:05.885Z,77.10
2022-08-23T03:54:33.819Z,77.03
2022-08-23T03:57:03.826Z,77.73
2022-08-23T03:59:35.867Z,77.74
2022-08-23T04:02:06.997Z,77.95
2022-08-23T04:04:34.849Z,77.96
2022-08-23T04:07:28.321Z,77.72
2022-08-23T04:09:58.936Z,77.49
2022-08-23T04:12:31.808Z,77.70
2022-08-23T04:15:01.635Z,77.82
2022-08-23T04:17:32.557Z,77.85
2022-08-23T04:20:01.247Z,77.96
2022-08-23T04:22:31.599Z,78.41
2022-08-23T04:24:59.339Z,78.61
2022-08-23T04:27:27.309Z,77.77
2022-08-23T04:29:55.158Z,76.94
2022-08-23T04:32:28.317Z,77.37
2022-08-23T04:34:58.377Z,77.46
2022-08-23T04:37:26.218Z,77.50
2022-08-23T04:40:13.012Z,77.14
2022-08-23T04:42:43.503Z,77.64
2022-08-23T04:45:12.456Z,77.57
2022-08-23T04:47:44.842Z,77.75
2022-08-23T04:50:12.896Z,78.80
2022-08-23T04:52:59.421Z,78.53
2022-08-23T04:55:29.531Z,78.72
2022-08-23T04:58:05.171Z,78.58
2022-08-23T05:00:37.985Z,78.71
2022-08-23T05:03:06.554Z,78.11
2022-08-23T05:05:34.566Z,78.11
2022-08-23T05:08:03.933Z,77.13
2022-08-23T05:10:33.092Z,77.66
2022-08-23T05:13:01.035Z,77.81
2022-08-23T05:15:29.551Z,77.81
2022-08-23T05:18:03.871Z,77.47
2022-08-23T05:20:32.521Z,77.22
2022-08-23T05:23:02.260Z,76.64
2022-08-23T05:25:53.070Z,76.87
2022-08-23T05:28:39.886Z,76.90
2022-08-23T05:31:11.937Z,77.32
2022-08-23T05:34:04.523Z,76.80
2022-08-23T05:36:47.632Z,77.04
2022-08-23T05:39:32.805Z,76.19
2022-08-23T05:42:08.539Z,76.60
2022-08-23T05:44:37.267Z,76.20
2022-08-23T05:47:11.058Z,76.47
2022-08-23T05:49:53.696Z,76.12
2022-08-23T05:52:22.330Z,75.32
2022-08-23T05:54:50.069Z,76.48
2022-08-23T05:57:37.664Z,75.90
2022-08-23T06:00:08.247Z,76.32
2022-08-23T06:02:46.755Z,76.49
2022-08-23T06:05:14.942Z,75.16
2022-08-23T06:07:43.861Z,75.12
2022-08-23T06:10:16.005Z,74.71
2022-08-23T06:12:51.084Z,75.54
2022-08-23T06:15:19.170Z,75.26
2022-08-23T06:17:47.817Z,75.34
2022-08-23T06:20:16.288Z,75.60
2022-08-23T06:23:01.914Z,75.46
2022-08-23T06:25:30.318Z,75.59
2022-08-23T06:28:08.807Z,75.64
2022-08-23T06:30:39.891Z,75.52
2022-08-23T06:33:31.597Z,74.73
2022-08-23T06:36:27.160Z,75.71
2022-08-23T06:39:14.633Z,75.23
2022-08-23T06:42:00.587Z,74.77
2022-08-23T06:44:32.624Z,74.03
2022-08-23T06:47:27.427Z,73.66
2022-08-23T06:49:57.442Z,72.98
2022-08-23T06:52:48.122Z,72.91
2022-08-23T06:55:35.350Z,72.67
2022-08-23T06:58:22.304Z,72.46
2022-08-23T07:01:28.927Z,72.43
2022-08-23T07:04:18.067Z,72.25
2022-08-23T07:07:11.343Z,73.10
2022-08-23T07:09:40.786Z,72.99
2022-08-23T07:12:11.116Z,72.09
2022-08-23T07:14:42.418Z,71.49
2022-08-23T07:17:12.747Z,71.60
2022-08-23T07:19:43.964Z,73.22
2022-08-23T07:22:12.239Z,72.47
2022-08-23T07:24:40.241Z,72.68
2022-08-23T07:27:09.644Z,72.32
2022-08-23T07:30:02.510Z,72.78
2022-08-23T07:32:33.125Z,72.53
2022-08-23T07:35:11.217Z,72.75
2022-08-23T07:37:43.304Z,72.95
2022-08-23T07:40:20.297Z,72.06
2022-08-23T07:42:49.602Z,72.22
2022-08-23T07:45:18.555Z,72.27
2022-08-23T07:47:54.291Z,71.94
2022-08-23T07:50:23.521Z,72.08
2022-08-23T07:52:51.946Z,72.24
2022-08-23T07:55:19.853Z,71.85
2022-08-23T07:58:09.924Z,71.67
2022-08-23T08:00:37.777Z,72.14
2022-08-23T08:03:31.746Z,71.65
2022-08-23T08:06:14.668Z,71.69
2022-08-23T08:08:44.486Z,71.88
2022-08-23T08:11:14.805Z,71.56
2022-08-23T08:13:44.172Z,72.54
2022-08-23T08:16:20.209Z,73.21
2022-08-23T08:18:49.545Z,73.30
2022-08-23T08:21:45.358Z,72.98
2022-08-23T08:24:28.152Z,73.13
2022-08-23T08:27:02.229Z,72.77
2022-08-23T08:29:30.148Z,71.48
2022-08-23T08:31:59.569Z,71.64
2022-08-23T08:34:30.483Z,70.87
2022-08-23T08:37:00.175Z,70.73
2022-08-23T08:39:31.629Z,70.55
2022-08-23T08:42:17.783Z,70.38
2022-08-23T08:44:52.280Z,71.19
2022-08-23T08:47:31.375Z,70.67
2022-08-23T08:50:09.695Z,69.61
2022-08-23T08:52:41.929Z,69.05
2022-08-23T08:55:23.127Z,70.22
2022-08-23T08:57:54.919Z,70.72
2022-08-23T09:00:25.584Z,70.65
2022-08-23T09:02:54.464Z,70.46
2022-08-23T09:05:27.761Z,70.43
2022-08-23T09:08:07.848Z,70.26
2022-08-23T09:10:53.140Z,69.87
2022-08-23T09:13:47.747Z,69.98
2022-08-23T09:16:29.099Z,70.00
2022-08-23T09:18:57.905Z,70.61
2022-08-23T09:21:28.514Z,72.05
2022-08-23T09:24:01.189Z,71.48
2022-08-23T09:26:52.092Z,71.42
2022-08-23T09:29:23.862Z,71.79
2022-08-23T09:31:58.571Z,72.22
2022-08-23T09:34:43.462Z,71.42
2022-08-23T09:37:19.520Z,71.61
2022-08-23T09:39:51.496Z,71.51
2022-08-23T09:42:32.801Z,71.47
2022-08-23T09:45:01.298Z,71.45
2022-08-23T09:47:39.807Z,71.98
2022-08-23T09:50:27.067Z,72.01
2022-08-23T09:53:04.454Z,72.25
2022-08-23T09:55:35.254Z,73.47
2022-08-23T09:58:07.069Z,73.34
2022-08-23T10:00:38.201Z,73.35
2022-08-23T10:03:22.407Z,72.99
2022-08-23T10:05:54.640Z,72.85
2022-08-23T10:08:28.317Z,72.91
2022-08-23T10:11:06.979Z,71.89
2022-08-23T10:13:37.961Z,71.52
2022-08-23T10:16:13.082Z,71.06
2022-08-23T10:19:02.403Z,70.94
2022-08-23T10:21:39.342Z,70.24
2022-08-23T10:24:20.169Z,71.53
2022-08-23T10:27:03.601Z,71.93
2022-08-23T10:29:38.791Z,71.43
2022-08-23T10:32:22.787Z,71.14
2022-08-23T10:35:04.659Z,71.27
2022-08-23T10:37:59.245Z,70.86
2022-08-23T10:40:33.790Z,71.15
2022-08-23T10:43:20.689Z,70.89
2022-08-23T10:45:50.423Z,70.47
2022-08-23T10:48:33.190Z,71.35
2022-08-23T10:51:03.984Z,71.32
2022-08-23T10:53:41.472Z,71.63
2022-08-23T10:56:16.206Z,72.09
2022-08-23T10:58:53.882Z,72.15
2022-08-23T11:01:26.606Z,72.75
2022-08-23T11:04:03.062Z,72.47
2022-08-23T11:06:48.186Z,72.88
2022-08-23T11:09:53.217Z,72.48
2022-08-23T11:12:28.379Z,71.63
2022-08-23T11:15:21.720Z,71.47
2022-08-23T11:17:58.637Z,73.03
2022-08-23T11:21:00.907Z,72.66
2022-08-23T11:23:43.890Z,72.84
2022-08-23T11:26:44.861Z,72.99
2022-08-23T11:29:32.922Z,73.28
2022-08-23T11:32:45.710Z,73.27
2022-08-23T11:35:43.374Z,72.51
2022-08-23T11:38:17.298Z,72.46
2022-08-23T11:41:00.550Z,71.82
2022-08-23T11:43:38.937Z,71.51
2022-08-23T11:46:34.653Z,71.16
2022-08-23T11:49:41.484Z,70.65
2022-08-23T11:52:26.642Z,71.25
2022-08-23T11:55:24.321Z,70.99
2022-08-23T11:58:06.008Z,70.83
2022-08-23T12:00:55.037Z,71.39
2022-08-23T12:03:32.572Z,71.83
2022-08-23T12:06:39.339Z,70.95
2022-08-23T12:09:15.252Z,71.55
2022-08-23T12:12:24.910Z,70.47
2022-08-23T12:14:56.740Z,69.44
2022-08-23T12:17:57.328Z,69.05
2022-08-23T12:20:32.569Z,69.78
2022-08-23T12:23:07.750Z,69.92
2022-08-23T12:25:37.929Z,68.09
2022-08-23T12:28:15.115Z,68.42
2022-08-23T12:30:56.610Z,69.80
2022-08-23T12:33:38.273Z,70.44
2022-08-23T12:36:22.464Z,69.83
2022-08-23T12:39:01.393Z,69.86
2022-08-23T12:41:31.364Z,70.25
2022-08-23T12:44:03.342Z,70.21
2022-08-23T12:46:35.963Z,70.12
2022-08-23T12:49:09.265Z,69.93
2022-08-23T12:51:50.202Z,69.77
2022-08-23T12:54:22.483Z,70.70
2022-08-23T12:56:53.295Z,70.68
2022-08-23T12:59:36.496Z,71.06
2022-08-23T13:02:13.296Z,70.50
2022-08-23T13:04:43.321Z,71.14
2022-08-23T13:07:22.364Z,71.68
2022-08-23T13:09:53.942Z,71.25
2022-08-23T13:12:24.112Z,71.04
2022-08-23T13:14:53.902Z,69.23
2022-08-23T13:17:32.444Z,70.46
2022-08-23T13:20:22.125Z,70.18
2022-08-23T13:23:03.317Z,71.47
2022-08-23T13:25:34.123Z,70.39
2022-08-23T13:28:04.768Z,70.91
2022-08-23T13:30:36.265Z,70.37
2022-08-23T13:33:23.128Z,70.17
2022-08-23T13:36:12.968Z,70.29
2022-08-23T13:38:43.949Z,69.82
2022-08-23T13:41:27.347Z,70.58
2022-08-23T13:43:55.911Z,71.44
2022-08-23T13:46:26.537Z,71.20
2022-08-23T13:48:59.699Z,72.15
2022-08-23T13:51:31.252Z,71.52
2022-08-23T13:54:03.340Z,71.34
2022-08-23T13:56:35.429Z,71.02
2022-08-23T13:59:22.737Z,71.64
2022-08-23T14:01:54.856Z,71.55
2022-08-23T14:04:23.094Z,71.89
2022-08-23T14:06:51.031Z,72.06
2022-08-23T14:09:20.444Z,71.40
2022-08-23T14:11:53.713Z,71.21
2022-08-23T14:14:22.053Z,71.02
2022-08-23T14:16:50.004Z,71.77
2022-08-23T14:19:54.781Z,71.67
2022-08-23T14:22:06.039Z,71.69
2022-08-23T14:24:35.148Z,71.47
2022-08-23T14:27:03.425Z,71.90
2022-08-23T14:29:31.893Z,72.40
2022-08-23T14:32:02.380Z,72.93
2022-08-23T14:34:31.578Z,73.23
2022-08-23T14:39:50.267Z,74.63
2022-08-23T14:42:22.050Z,74.21
2022-08-23T14:44:49.945Z,73.77
2022-08-23T14:47:18.238Z,74.31
2022-08-23T14:49:47.639Z,74.56
2022-08-23T14:52:17.090Z,74.10
2022-08-23T14:54:44.993Z,73.89
2022-08-23T14:57:14.175Z,74.48
2022-08-23T14:59:41.970Z,75.33
2022-08-23T15:02:12.933Z,74.71
2022-08-23T15:04:41.700Z,74.41
2022-08-23T15:07:18.699Z,74.81
2022-08-23T15:09:47.365Z,74.30
2022-08-23T15:15:07.295Z,74.45
2022-08-23T15:17:37.479Z,74.68
2022-08-23T15:20:06.099Z,74.94
2022-08-23T15:22:33.900Z,74.65
2022-08-23T15:25:13.169Z,74.38
2022-08-23T15:27:42.554Z,74.63
2022-08-23T15:30:11.939Z,74.09
2022-08-23T15:32:40.700Z,74.50
2022-08-23T15:35:21.394Z,74.68
2022-08-23T15:37:50.235Z,74.71
2022-08-23T15:40:18.357Z,74.57
2022-08-23T15:42:47.678Z,74.77
2022-08-23T15:45:15.849Z,75.05
2022-08-23T15:47:49.275Z,75.28
2022-08-23T15:50:19.254Z,75.42
2022-08-23T15:52:47.561Z,74.68
2022-08-23T15:55:16.887Z,74.30
2022-08-23T15:57:48.594Z,74.62
2022-08-23T16:00:19.640Z,74.71
2022-08-23T16:03:18.323Z,75.48
2022-08-23T16:05:37.230Z,75.48
2022-08-23T16:08:07.409Z,75.52
2022-08-23T16:10:35.340Z,75.57
2022-08-23T16:13:04.592Z,75.27
2022-08-23T16:15:32.565Z,75.13
2022-08-23T16:18:00.467Z,75.22
2022-08-23T16:20:28.700Z,74.98
2022-08-23T16:22:56.758Z,75.51
2022-08-23T16:25:24.746Z,75.55
2022-08-23T16:27:52.586Z,76.23
2022-08-23T16:30:21.925Z,75.99
2022-08-23T16:32:50.451Z,75.96
2022-08-23T16:35:18.793Z,75.68
2022-08-23T16:37:46.589Z,75.77
2022-08-23T16:40:15.223Z,75.81
2022-08-23T16:42:43.270Z,75.40
2022-08-23T16:45:12.316Z,76.01
2022-08-23T16:47:44.796Z,75.65
2022-08-23T16:50:14.335Z,75.28
2022-08-23T16:52:42.310Z,75.32
2022-08-23T16:55:12.358Z,74.71
2022-08-23T16:57:40.370Z,73.95
2022-08-23T17:00:11.815Z,73.41
2022-08-23T17:02:41.623Z,73.49
2022-08-23T17:05:13.302Z,73.29
2022-08-23T17:07:41.203Z,73.77
2022-08-23T17:10:11.434Z,73.70
2022-08-23T17:12:46.966Z,73.71
2022-08-23T17:15:17.983Z,74.71
2022-08-23T17:17:49.512Z,74.40
2022-08-23T17:20:19.095Z,74.98
2022-08-23T17:22:47.597Z,75.50
2022-08-23T17:25:16.533Z,76.20
2022-08-23T17:27:46.491Z,76.08
2022-08-23T17:30:16.977Z,76.14
2022-08-23T17:32:47.703Z,76.09
2022-08-23T17:35:19.487Z,76.51
2022-08-23T17:37:48.078Z,75.72
2022-08-23T17:40:19.875Z,75.57
2022-08-23T17:42:50.053Z,75.48
2022-08-23T17:45:19.453Z,74.58
2022-08-23T17:47:47.847Z,74.95
2022-08-23T17:50:18.889Z,75.16
2022-08-23T17:52:47.166Z,74.45
2022-08-23T17:55:17.145Z,74.92
2022-08-23T17:57:47.117Z,75.13
2022-08-23T18:00:18.069Z,75.94
2022-08-23T18:02:45.879Z,75.94
2022-08-23T18:05:13.861Z,75.68
2022-08-23T18:07:42.972Z,75.79
2022-08-23T18:10:12.004Z,75.95
2022-08-23T18:12:41.001Z,76.37
2022-08-23T18:15:10.732Z,76.00
2022-08-23T18:17:39.796Z,76.50
2022-08-23T18:20:10.195Z,76.26
2022-08-23T18:22:38.276Z,75.79
2022-08-23T18:25:10.999Z,76.23
2022-08-23T18:27:56.746Z,76.45
2022-08-23T18:30:24.712Z,76.61
2022-08-23T18:32:53.019Z,76.22
2022-08-23T18:35:21.435Z,76.61
2022-08-23T18:37:49.283Z,76.48
2022-08-23T18:40:18.668Z,76.42
2022-08-23T18:42:46.495Z,76.46
2022-08-23T18:45:14.873Z,75.95
2022-08-23T18:47:42.731Z,75.46
2022-08-23T18:50:12.238Z,75.41
2022-08-23T18:52:40.759Z,75.47
2022-08-23T18:55:09.339Z,75.37
2022-08-23T18:57:39.643Z,75.76
2022-08-23T19:00:10.645Z,75.64
2022-08-23T19:02:38.472Z,76.14
2022-08-23T19:05:07.074Z,76.11
2022-08-23T19:07:35.172Z,75.98
2022-08-23T19:10:03.008Z,76.35
2022-08-23T19:12:30.902Z,75.86
2022-08-23T19:15:00.406Z,76.28
2022-08-23T19:17:28.309Z,75.92
2022-08-23T19:19:56.723Z,76.08
2022-08-23T19:22:24.700Z,76.39
2022-08-23T19:24:52.985Z,76.17
2022-08-23T19:27:20.938Z,76.09
2022-08-23T19:29:48.804Z,76.16
2022-08-23T19:32:19.340Z,75.79
2022-08-23T19:34:49.313Z,75.80
2022-08-23T19:37:23.088Z,75.79
2022-08-23T19:39:52.124Z,75.53
2022-08-23T19:42:20.723Z,75.69
2022-08-23T19:44:49.524Z,75.55
2022-08-23T19:47:20.226Z,76.41
2022-08-23T19:49:49.526Z,76.76
2022-08-23T19:52:17.488Z,77.06
2022-08-23T19:54:45.321Z,76.40
2022-08-23T19:57:13.232Z,75.98
2022-08-23T19:59:41.367Z,75.58
2022-08-23T20:02:10.405Z,75.26
2022-08-23T20:04:39.684Z,76.28
2022-08-23T20:07:07.706Z,76.00
2022-08-23T20:09:36.301Z,76.10
2022-08-23T20:12:04.862Z,76.44
2022-08-23T20:14:33.982Z,76.43
2022-08-23T20:17:04.408Z,76.51
2022-08-23T20:19:32.259Z,76.62
2022-08-23T20:22:15.869Z,77.15
2022-08-23T20:24:51.484Z,77.19
2022-08-23T20:27:24.098Z,76.55
2022-08-23T20:29:59.753Z,76.69
2022-08-23T20:32:28.807Z,76.72
2022-08-23T20:34:57.174Z,76.51
2022-08-23T20:37:26.370Z,76.44
2022-08-23T20:39:54.540Z,76.41
2022-08-23T20:42:22.643Z,76.25
2022-08-23T20:44:50.464Z,75.94
2022-08-23T20:47:18.357Z,75.56
2022-08-23T20:49:46.420Z,75.81
2022-08-23T20:52:14.230Z,75.71
2022-08-23T20:54:43.502Z,75.62
2022-08-23T20:57:11.280Z,75.63
2022-08-23T20:59:44.199Z,76.09
2022-08-23T21:02:12.798Z,76.30
2022-08-23T21:04:40.693Z,76.71
2022-08-23T21:07:09.203Z,76.12
2022-08-23T21:09:37.043Z,76.01
2022-08-23T21:12:06.943Z,76.60
2022-08-23T21:14:35.020Z,76.27
2022-08-23T21:17:03.042Z,75.99
2022-08-23T21:19:31.296Z,76.18
2022-08-23T21:21:59.335Z,76.64
2022-08-23T21:24:27.352Z,76.67
2022-08-23T21:26:55.270Z,76.62
2022-08-23T21:29:24.412Z,77.15
2022-08-23T21:31:56.210Z,77.13
2022-08-23T21:34:24.783Z,77.38
2022-08-23T21:36:52.624Z,77.20
2022-08-23T21:39:20.572Z,76.88
2022-08-23T21:41:49.164Z,76.82
2022-08-23T21:44:19.681Z,77.45
2022-08-23T21:46:49.555Z,77.45
2022-08-23T21:49:17.325Z,77.12
2022-08-23T21:51:46.571Z,77.49
2022-08-23T21:54:14.972Z,77.40
2022-08-23T21:56:43.527Z,76.98
2022-08-23T21:59:13.487Z,77.36
2022-08-23T22:01:42.198Z,77.99
2022-08-23T22:04:13.458Z,77.76
2022-08-23T22:06:42.864Z,78.02
2022-08-23T22:09:14.092Z,77.95
2022-08-23T22:11:44.030Z,77.83
2022-08-23T22:14:16.957Z,77.70
2022-08-23T22:16:45.393Z,77.30
2022-08-23T22:19:15.199Z,77.13
2022-08-23T22:21:43.138Z,78.11
2022-08-23T22:24:11.532Z,78.02
2022-08-23T22:26:40.676Z,78.23
2022-08-23T22:29:09.399Z,78.44
2022-08-23T22:31:39.447Z,78.46
2022-08-23T22:34:35.138Z,78.04
2022-08-23T22:37:03.734Z,77.81
2022-08-23T22:39:31.563Z,78.47
2022-08-23T22:41:59.977Z,78.47
2022-08-23T22:44:28.356Z,78.44
2022-08-23T22:46:57.540Z,79.17
2022-08-23T22:49:26.272Z,78.84
2022-08-23T22:51:56.150Z,78.70
2022-08-23T22:54:24.686Z,78.51
2022-08-23T22:56:54.340Z,78.90
2022-08-23T22:59:26.452Z,78.93
2022-08-23T23:01:58.496Z,78.52
2022-08-23T23:04:27.870Z,78.67
2022-08-23T23:06:57.370Z,78.36
2022-08-23T23:09:25.394Z,78.47
2022-08-23T23:11:54.191Z,78.88
2022-08-23T23:14:22.812Z,78.92
2022-08-23T23:16:51.109Z,78.35
2022-08-23T23:19:37.475Z,78.69
2022-08-23T23:22:09.469Z,79.35
2022-08-23T23:24:40.027Z,79.23
2022-08-23T23:27:08.860Z,78.69
2022-08-23T23:29:36.785Z,78.26
2022-08-23T23:32:05.815Z,78.79
2022-08-23T23:34:34.634Z,79.27
2022-08-23T23:37:03.292Z,79.08
2022-08-23T23:39:32.611Z,79.09
2022-08-23T23:42:00.441Z,78.93
2022-08-23T23:44:30.795Z,79.01
2022-08-23T23:47:01.609Z,78.49
2022-08-23T23:49:32.024Z,78.83
2022-08-23T23:52:02.734Z,78.79
2022-08-23T23:54:36.539Z,78.14
2022-08-23T23:57:05.835Z,77.49
2022-08-23T23:59:33.717Z,77.02
